METAR / TAF

Die METAR- und TAF-Liste ist aus technischen Gründen (Verfügbarkeit, Update-Zyklen) nicht für ein Meteo-Briefing gedacht. Benutzen Sie stattdessen skybriefing der Skyguide  oder das TAMSI (MeteoSchweiz-eigene Meteo Selfbriefing-Plattform für Firmen aus der Aviatik; Anfragen über das

Kontaktformular

METAR Schweiz

METAR     LSZH 141120Z 02006KT 330V050 9999 FEW022 BKN085 M01/M06
               Q1017 NOSIG=
METAR     LSZH 141150Z 03006KT 9999 FEW022 BKN085 M01/M06 Q1017
               NOSIG=
METAR     LSGG 141120Z 07007KT 9999 FEW018 BKN023 03/M03 Q1016
               NOSIG=
METAR     LSGG 141150Z 07006KT 040V130 9999 FEW020 BKN025 03/M03
               Q1016 NOSIG=
METAR     LFSB 141130Z 31003KT 9999 FEW033 BKN078 00/M03 Q1018
               NOSIG=
METAR     LSZB 141120Z 28003KT 9999 BKN050 M00/M04 Q1016 NOSIG=
METAR     LSZB 141150Z 28005KT 9000 BKN050 BKN070 M00/M03 Q1016
               NOSIG=
METAR     LSZA 141120Z AUTO VRB03KT CAVOK 04/M04 Q1016=
METAR     LSZA 141150Z VRB02KT CAVOK 04/M04 Q1016 NOSIG=
METAR     LSZG 141120Z 08007KT 9999 BKN024 M00/M04 Q1017 RESN NOSIG=
METAR     LSZG 141150Z 07007KT 9999 BKN023 SCT050 M00/M04 Q1017
               NOSIG=
METAR     LSZR 141120Z AUTO 29004KT 250V330 9999 FEW016 M01/M05
               Q1018=
METAR     LSZR 141150Z 31004KT 260V360 9999 FEW017 M01/M05 Q1017
               NOSIG RMK H=
METAR     LSGS 141120Z VRB02KT 9999 FEW070 01/M09 Q1016=
METAR     LSGS 141150Z VRB01KT 9999 FEW070 02/M10 Q1015=
METAR     LSGC 141120Z 00000KT 9999 BKN011 OVC036 M02/M06 Q1013=
METAR     LSGC 141150Z 00000KT 9999 BKN036 M02/M06 Q1013=
METAR     LSZC 141120Z AUTO VRB02KT 9999 OVC017 00/M04 Q1017=
METAR     LSZC 141150Z AUTO VRB02KT 9999 OVC018 00/M04 Q1016 RESN=
METAR     LSZL 141120Z NIL=
METAR     LSZL 141150Z 18003KT CAVOK 02/M05 Q1016 RMK BLU=
METAR     LSZS 141120Z 09002KT CAVOK M15/M17 Q1010 RMK K=
METAR     LSZS 141150Z 07001KT CAVOK M14/M16 Q1010 RMK L=
METAR     LSMA 141120Z AUTO 05005KT 350V090 9999NDV -SHRA BKN019
               OVC024 00/M04 Q1017 RMK=
METAR     LSMA 141150Z AUTO 05005KT 020V080 9999NDV BKN019 OVC024
               00/M04 Q1017 RMK=
METAR     LSMD 141120Z AUTO 08005KT 050V150 9999NDV FEW070 BKN084
               M01/M05 Q1017 RMK=
METAR     LSMD 141150Z 04006KT 010V090 9999 BKN084 M00/M05 Q1017
               RMK BLU=
METAR     LSME 141120Z NIL=
METAR     LSME 141150Z NIL=
METAR     LSMM 141120Z AUTO VRB02KT 9999NDV FEW019 BKN070 01/M03
               Q1015 RMK=
METAR     LSMM 141150Z NIL=
METAR     LSMP 141120Z 06006KT 020V080 9999 FEW014 BKN055 M00/M03
               Q1016 RMK BLU=
METAR     LSMP 141150Z 05005KT 010V080 9999 OVC055 00/M03 Q1016 RMK
               BLU=
METAR     LSMS 141120Z VRB02KT 9999 FEW070 01/M09 Q1016 RMK BLU+=
METAR     LSMS 141150Z VRB01KT 9999 FEW070 02/M10 Q1015 RMK BLU+=
Aktualisiert am Freitag, 14. Dezember 2018, 13:01 Uhr

TAF Schweiz

TAF     LSZH 140825Z 1409/1515 06007KT 9999 FEW020 BKN085
             TX00/1414Z TNM04/1505Z TXM01/1514Z BECMG 1418/1420
             VRB03KT BECMG 1422/1501 OVC013 PROB40 1502/1509 4000
             BR BECMG 1507/1509 05005KT BECMG 1510/1512 BKN015=
TAF     LSGG 140825Z 1409/1515 VRB03KT 9999 BKN022 TX02/1414Z
             TNM03/1506Z TX01/1515Z PROB40 1507/1513 BKN014=
TAF     LFSB 140500Z 1406/1506 32005KT 7000 NSC PROB30 TEMPO
             1406/1409 3500 BR TEMPO 1409/1418 CAVOK TEMPO
             1422/1506 3500 BR BKN008 PROB40 TEMPO 1500/1506 0300
             FZFG VV///=
TAF     LSGS 140825Z 1409/1418 VRB03KT CAVOK TEMPO 1409/1418 9999
             FEW100=
TAF     LSZA 140825Z 1409/1418 VRB03KT CAVOK=
TAF     LSZB 140825Z 1409/1418 28005KT 9000 BKN060=
TAF     LSZG 140825Z 1409/1418 06008KT 9999 BKN024=
TAF     LSZL 140525Z 1406/1415 07004KT CAVOK=
TAF     LSZR 140825Z 1409/1418 10005KT CAVOK PROB40 1409/1418 9999
             BKN017=
TAF     LSGC 140825Z 1409/1418 VRB03KT 9999 BKN035 PROB40 1412/1417
             BKN012=
TAF     LSZC 140825Z 1409/1418 VRB02KT 7000 BKN020=
TAF     LSZS 140825Z 1409/1418 VRB02KT 1200 BCFG NSC TXM07/1413Z
             BECMG 1409/1410 CAVOK=
TAF     LSMA 140925Z 1410/1516 06005KT 9999 FEW021 BKN080 PROB40
             1421/1512 4000 BR BKN012=
TAF     LSMD 140925Z 1410/1516 06005KT 9999 FEW018 BKN080 PROB40
             1421/1512 4000 BR BKN012=
TAF     LSME 140925Z 1410/1516 05005KT 9999 FEW021 BKN080 PROB40
             1421/1512 4000 BR BKN012=
TAF     LSMM 140925Z 1410/1516 07007KT 9999 FEW020 BKN080 PROB40
             1421/1510 4000 BR BKN012 PROB40 1510/1516 CAVOK=
TAF     LSMP 140925Z 1410/1516 05005KT 9999 BKN040 BECMG 1505/1507
             BKN014=
Aktualisiert am Freitag, 14. Dezember 2018, 12:03 Uhr